Time;durP1;ratioP1;P1;durP2;ratioP2;P2;SDS_P1;SDS_P2;PMS_P1;PMS_P2;Temp;Humidity;BMP_temperature;BMP_pressure;BME280_temperature;BME280_humidity;BME280_pressure;Samples;Min_cycle;Max_cycle;Signal;HPM_P1;HPM_P2
2022/06/18 00:00:59;;;;;;;4.70;3.63;;;23.10;94.10;;;;;;5042939;28;20217;-78
2022/06/18 00:03:27;;;;;;;4.18;3.78;;;23.00;94.30;;;;;;5040152;28;20371;-78
2022/06/18 00:05:56;;;;;;;6.40;4.13;;;23.00;94.30;;;;;;5039242;28;20202;-78
2022/06/18 00:08:28;;;;;;;7.80;4.32;;;23.00;94.40;;;;;;5040823;28;20235;-78
2022/06/18 00:13:39;;;;;;;5.30;4.00;;;23.00;94.40;;;;;;5041561;28;20221;-79
2022/06/18 00:13:49;;;;;;;6.93;4.40;;;23.00;94.60;;;;;;5042090;28;20209;-79
2022/06/18 00:16:19;;;;;;;4.85;4.07;;;23.00;94.80;;;;;;5039094;28;20218;-78
2022/06/18 00:18:47;;;;;;;5.53;3.88;;;23.00;94.90;;;;;;5041885;28;20610;-78
2022/06/18 00:21:17;;;;;;;5.80;4.07;;;22.90;95.10;;;;;;5040960;28;20242;-78
2022/06/18 00:23:44;;;;;;;5.22;4.03;;;22.90;95.40;;;;;;5039849;28;20213;-78
2022/06/18 00:26:11;;;;;;;9.55;4.32;;;22.90;95.70;;;;;;5042465;28;20227;-78
2022/06/18 00:28:38;;;;;;;7.15;4.57;;;22.80;95.80;;;;;;5038862;28;20268;-78
2022/06/18 00:31:04;;;;;;;6.25;3.97;;;22.80;96.10;;;;;;5040990;28;20620;-79
2022/06/18 00:33:35;;;;;;;5.63;4.07;;;22.80;96.30;;;;;;5041545;28;20198;-78
2022/06/18 00:36:04;;;;;;;6.38;4.45;;;22.80;96.40;;;;;;5069953;28;20673;-78
2022/06/18 00:38:44;;;;;;;7.63;4.50;;;22.70;96.50;;;;;;5038328;28;20321;-79
2022/06/18 00:41:22;;;;;;;8.40;4.55;;;22.70;96.80;;;;;;5040124;28;20297;-77
2022/06/18 00:43:55;;;;;;;6.03;4.80;;;22.70;96.90;;;;;;5037226;28;20213;-78
2022/06/18 00:46:37;;;;;;;8.13;4.07;;;22.70;97.00;;;;;;5040519;28;20297;-78
2022/06/18 00:49:42;;;;;;;7.78;4.00;;;22.70;97.10;;;;;;5038867;28;20318;-79
2022/06/18 00:52:18;;;;;;;6.38;4.47;;;22.70;97.10;;;;;;5041028;28;20213;-77
2022/06/18 00:55:29;;;;;;;6.70;4.05;;;22.70;97.20;;;;;;5037731;28;20241;-78
2022/06/18 00:58:05;;;;;;;6.45;4.53;;;22.70;97.40;;;;;;5026880;28;20228;-79
2022/06/18 01:00:39;;;;;;;6.93;4.40;;;22.70;97.40;;;;;;5027100;28;20229;-79
2022/06/18 01:03:22;;;;;;;5.32;4.22;;;22.70;97.60;;;;;;5036010;28;20240;-77
2022/06/18 01:05:52;;;;;;;8.57;4.53;;;22.70;97.70;;;;;;5039806;28;20500;-78
2022/06/18 01:08:22;;;;;;;5.32;4.60;;;22.70;97.70;;;;;;5041696;28;20750;-78
2022/06/18 01:10:55;;;;;;;5.82;4.43;;;22.70;97.70;;;;;;5037632;28;20630;-79
2022/06/18 01:13:26;;;;;;;6.80;4.43;;;22.70;97.70;;;;;;5038165;28;20245;-79
2022/06/18 01:15:55;;;;;;;6.75;4.90;;;22.70;97.90;;;;;;5038227;28;20206;-78
2022/06/18 01:18:22;;;;;;;7.25;4.82;;;22.70;97.90;;;;;;5029725;28;20202;-78
2022/06/18 01:20:53;;;;;;;7.95;5.07;;;22.70;98.10;;;;;;5029225;28;20749;-78
2022/06/18 01:23:40;;;;;;;6.75;4.55;;;22.70;98.10;;;;;;5029091;28;20220;-78
2022/06/18 01:26:08;;;;;;;6.25;4.60;;;22.70;98.30;;;;;;5029342;28;20275;-78
2022/06/18 01:28:35;;;;;;;7.15;4.57;;;22.70;98.50;;;;;;5035103;28;20209;-77
2022/06/18 01:31:02;;;;;;;8.20;5.10;;;22.70;98.50;;;;;;5033034;28;20582;-78
2022/06/18 01:33:32;;;;;;;6.47;4.63;;;22.70;98.60;;;;;;5039728;28;20632;-76
2022/06/18 01:36:03;;;;;;;5.15;4.65;;;22.60;98.90;;;;;;5043988;28;20201;-79
2022/06/18 01:38:29;;;;;;;6.47;5.22;;;22.60;98.90;;;;;;5039572;28;20230;-79
2022/06/18 01:43:55;;;;;;;7.57;4.75;;;22.60;99.20;;;;;;5042349;28;20259;-78
2022/06/18 01:46:22;;;;;;;7.53;5.15;;;22.60;99.30;;;;;;5037335;28;20233;-79
2022/06/18 01:48:52;;;;;;;8.07;5.30;;;22.60;99.30;;;;;;5040253;28;20205;-79
2022/06/18 01:51:29;;;;;;;8.00;4.55;;;22.60;99.30;;;;;;5039432;28;20217;-78
2022/06/18 01:54:04;;;;;;;9.77;4.88;;;22.60;99.60;;;;;;5037174;28;20292;-79
2022/06/18 01:56:37;;;;;;;9.25;5.50;;;22.60;99.80;;;;;;5038946;28;20287;-78
2022/06/18 01:59:19;;;;;;;7.95;4.82;;;22.60;99.90;;;;;;5040939;28;20307;-80
2022/06/18 02:01:48;;;;;;;8.82;5.40;;;22.50;99.90;;;;;;5041893;28;20228;-79
2022/06/18 02:04:18;;;;;;;8.77;5.30;;;22.50;99.90;;;;;;5037549;28;20252;-78
2022/06/18 02:06:48;;;;;;;6.68;5.15;;;22.50;99.90;;;;;;5039799;28;20282;-78
2022/06/18 02:09:27;;;;;;;5.75;5.13;;;22.40;99.90;;;;;;5040665;28;20224;-79
2022/06/18 02:11:56;;;;;;;8.35;5.80;;;22.40;99.90;;;;;;5042125;28;20217;-79
2022/06/18 02:14:25;;;;;;;8.23;6.00;;;22.40;99.90;;;;;;5040845;28;20218;-76
2022/06/18 02:16:54;;;;;;;10.32;6.43;;;22.30;99.90;;;;;;5045329;28;20202;-79
2022/06/18 02:19:21;;;;;;;9.73;5.93;;;22.30;99.90;;;;;;5038396;28;20214;-78
2022/06/18 02:21:52;;;;;;;12.68;6.45;;;22.30;99.90;;;;;;5042253;28;20595;-76
2022/06/18 02:24:19;;;;;;;9.85;5.90;;;22.30;99.90;;;;;;5038938;28;20275;-78
2022/06/18 02:26:48;;;;;;;9.38;6.45;;;22.20;99.90;;;;;;5044577;28;20612;-79
2022/06/18 02:29:27;;;;;;;10.60;6.95;;;22.20;99.90;;;;;;5040523;28;20299;-77
2022/06/18 02:31:54;;;;;;;8.70;6.35;;;22.20;99.90;;;;;;5042236;28;20664;-79
2022/06/18 02:34:29;;;;;;;8.98;6.55;;;22.20;99.90;;;;;;5045933;28;20276;-77
2022/06/18 02:36:56;;;;;;;9.77;6.40;;;22.20;99.90;;;;;;5038639;28;20243;-79
2022/06/18 02:39:33;;;;;;;10.18;6.82;;;22.20;99.90;;;;;;5041901;28;20680;-77
2022/06/18 02:42:12;;;;;;;12.43;6.78;;;22.10;99.90;;;;;;5043667;28;20233;-79
2022/06/18 02:44:42;;;;;;;12.55;7.47;;;22.10;99.90;;;;;;5036270;28;20210;-78
2022/06/18 02:47:11;;;;;;;9.50;6.65;;;22.10;99.90;;;;;;5043588;28;20205;-78
2022/06/18 02:49:42;;;;;;;8.60;6.40;;;22.00;99.90;;;;;;5040249;28;20205;-79
2022/06/18 02:52:09;;;;;;;10.52;7.53;;;22.00;99.90;;;;;;5039504;28;20221;-76
2022/06/18 02:54:36;;;;;;;8.70;6.53;;;22.00;99.90;;;;;;5040938;28;20222;-77
2022/06/18 02:57:10;;;;;;;10.48;6.65;;;21.90;99.90;;;;;;5044023;28;20294;-78
2022/06/18 02:59:36;;;;;;;10.25;7.93;;;21.90;99.90;;;;;;5045230;28;20212;-76
2022/06/18 03:02:04;;;;;;;9.98;6.70;;;21.90;99.90;;;;;;5043874;28;20217;-78
2022/06/18 03:04:31;;;;;;;12.10;8.52;;;21.90;99.90;;;;;;5038279;28;20242;-79
2022/06/18 03:06:58;;;;;;;11.27;7.68;;;21.90;99.90;;;;;;5074636;28;20216;-79
2022/06/18 03:09:25;;;;;;;13.20;8.73;;;21.80;99.90;;;;;;5038231;28;20229;-77
2022/06/18 03:12:06;;;;;;;10.07;7.82;;;21.80;99.90;;;;;;5039029;28;20217;-79
2022/06/18 03:14:33;;;;;;;11.95;8.10;;;21.70;99.90;;;;;;5035184;28;20215;-78
2022/06/18 03:17:00;;;;;;;10.80;7.93;;;21.70;99.90;;;;;;5039334;28;20550;-79
2022/06/18 03:19:34;;;;;;;10.25;7.97;;;21.70;99.90;;;;;;5038401;28;20214;-78
2022/06/18 03:22:10;;;;;;;11.80;8.13;;;21.70;99.90;;;;;;5037143;28;20287;-78
2022/06/18 03:24:40;;;;;;;12.85;8.70;;;21.70;99.90;;;;;;5038939;28;20275;-79
2022/06/18 03:27:09;;;;;;;8.80;7.70;;;21.60;99.90;;;;;;5038695;28;20742;-80
2022/06/18 03:29:36;;;;;;;9.07;8.13;;;21.60;99.90;;;;;;5039166;28;20568;-77
2022/06/18 03:32:04;;;;;;;16.10;8.30;;;21.60;99.90;;;;;;5040229;28;20217;-78
2022/06/18 03:34:31;;;;;;;10.57;8.15;;;21.60;99.90;;;;;;5044235;28;20209;-77
2022/06/18 03:36:58;;;;;;;11.70;8.23;;;21.60;99.90;;;;;;5040619;28;20240;-78
2022/06/18 03:39:26;;;;;;;10.77;8.02;;;21.60;99.90;;;;;;5041299;28;20230;-79
2022/06/18 03:41:53;;;;;;;11.25;7.80;;;21.60;99.90;;;;;;5042845;28;20237;-78
2022/06/18 03:44:20;;;;;;;10.10;7.55;;;21.60;99.90;;;;;;5038393;28;20205;-78
2022/06/18 03:46:47;;;;;;;10.93;7.50;;;21.70;99.90;;;;;;5042877;28;20692;-80
2022/06/18 03:49:34;;;;;;;13.75;7.90;;;21.60;99.90;;;;;;5039342;28;20210;-78
2022/06/18 03:52:04;;;;;;;10.32;7.50;;;21.70;99.90;;;;;;5040426;28;20205;-78
2022/06/18 03:54:31;;;;;;;10.30;8.25;;;21.70;99.90;;;;;;5040446;28;20286;-78
2022/06/18 03:56:58;;;;;;;12.65;7.38;;;21.70;99.90;;;;;;5040246;28;20213;-78
2022/06/18 03:59:25;;;;;;;13.63;7.45;;;21.70;99.90;;;;;;5039344;28;20662;-77
2022/06/18 04:01:52;;;;;;;11.73;7.90;;;21.80;99.90;;;;;;5046204;28;20290;-80
2022/06/18 04:04:19;;;;;;;11.07;7.25;;;21.80;99.90;;;;;;5037442;28;20708;-79
2022/06/18 04:06:46;;;;;;;11.23;7.95;;;21.80;99.90;;;;;;5040617;28;20209;-79
2022/06/18 04:09:13;;;;;;;10.18;7.70;;;21.80;99.90;;;;;;5072733;28;20217;-78
2022/06/18 04:11:40;;;;;;;9.73;7.55;;;21.80;99.90;;;;;;5041436;28;20283;-79
2022/06/18 04:14:06;;;;;;;10.80;7.85;;;21.90;99.90;;;;;;5039915;28;20217;-79
2022/06/18 04:16:34;;;;;;;11.65;8.02;;;21.90;99.90;;;;;;5042239;28;20298;-78
2022/06/18 04:19:01;;;;;;;12.15;7.68;;;21.90;99.90;;;;;;5039616;28;20217;-79
2022/06/18 04:21:28;;;;;;;13.10;8.10;;;22.00;99.90;;;;;;5041010;28;20232;-78
2022/06/18 04:23:55;;;;;;;8.88;7.95;;;22.00;99.90;;;;;;5040741;28;20205;-79
2022/06/18 04:26:22;;;;;;;12.75;8.38;;;22.10;99.90;;;;;;5038344;28;20220;-79
2022/06/18 04:28:49;;;;;;;11.35;8.00;;;22.20;99.90;;;;;;5042928;28;20201;-79
2022/06/18 04:31:15;;;;;;;15.05;8.70;;;22.20;99.90;;;;;;5030561;28;20760;-79
2022/06/18 04:33:43;;;;;;;10.32;8.07;;;22.20;99.90;;;;;;5035381;28;20205;-77
2022/06/18 04:36:29;;;;;;;12.30;7.70;;;22.20;99.90;;;;;;5040009;28;20618;-79
2022/06/18 04:38:56;;;;;;;14.55;8.63;;;22.20;99.90;;;;;;5037992;28;20231;-79
2022/06/18 04:41:25;;;;;;;14.77;8.60;;;22.20;99.90;;;;;;5039398;28;20226;-76
2022/06/18 04:43:52;;;;;;;9.15;7.25;;;22.30;99.90;;;;;;5040011;28;20271;-79
2022/06/18 04:46:19;;;;;;;13.93;7.70;;;22.30;99.90;;;;;;5037822;28;20202;-77
2022/06/18 04:48:46;;;;;;;11.05;7.18;;;22.40;99.90;;;;;;5038201;28;20202;-77
2022/06/18 04:51:13;;;;;;;10.27;7.25;;;22.40;99.90;;;;;;5040195;28;20205;-77
2022/06/18 04:53:40;;;;;;;12.95;7.25;;;22.50;99.90;;;;;;5039766;28;20210;-77
2022/06/18 04:56:08;;;;;;;10.43;7.63;;;22.50;99.90;;;;;;5040118;28;20255;-79
2022/06/18 04:58:35;;;;;;;9.57;6.88;;;22.60;99.90;;;;;;5037715;28;20449;-78
2022/06/18 05:01:02;;;;;;;12.52;7.78;;;22.60;99.90;;;;;;5045410;28;20286;-79
2022/06/18 05:03:29;;;;;;;12.40;7.15;;;22.70;99.90;;;;;;5035359;28;20233;-78
2022/06/18 05:05:58;;;;;;;15.02;7.72;;;22.70;99.90;;;;;;5041812;28;20212;-77
2022/06/18 05:08:25;;;;;;;12.07;7.68;;;22.80;99.90;;;;;;5039720;28;20217;-79
2022/06/18 05:10:53;;;;;;;14.55;7.47;;;22.90;99.90;;;;;;5041042;28;20221;-78
2022/06/18 05:13:19;;;;;;;15.35;7.53;;;23.00;99.90;;;;;;5040904;28;20241;-79
2022/06/18 05:15:48;;;;;;;11.98;7.25;;;23.20;99.90;;;;;;5073836;28;20579;-76
2022/06/18 05:18:17;;;;;;;11.27;7.25;;;23.30;99.90;;;;;;5037346;28;20751;-78
2022/06/18 05:20:48;;;;;;;13.65;7.40;;;23.40;99.90;;;;;;5038893;28;20206;-80
2022/06/18 05:23:15;;;;;;;12.10;6.90;;;23.50;99.90;;;;;;5040719;28;20351;-78
2022/06/18 05:25:42;;;;;;;13.48;8.02;;;23.60;99.90;;;;;;5037829;28;20553;-77
2022/06/18 05:28:10;;;;;;;11.50;7.05;;;23.90;99.90;;;;;;5029643;28;20209;-80
2022/06/18 05:30:38;;;;;;;11.75;6.70;;;24.40;99.90;;;;;;5029555;28;20232;-78
2022/06/18 05:33:05;;;;;;;12.48;6.97;;;25.00;99.90;;;;;;5029281;28;20218;-75
2022/06/18 05:35:35;;;;;;;14.35;7.10;;;25.50;99.90;;;;;;5038532;28;20252;-78
2022/06/18 05:38:02;;;;;;;14.60;6.82;;;26.10;99.90;;;;;;5040792;28;20657;-79
2022/06/18 05:40:29;;;;;;;8.18;5.78;;;26.60;99.90;;;;;;5040960;28;20231;-78
2022/06/18 05:42:55;;;;;;;9.40;6.63;;;27.00;99.90;;;;;;5037863;28;20232;-78
2022/06/18 05:45:22;;;;;;;12.65;7.10;;;27.30;99.90;;;;;;5034485;28;20212;-79
2022/06/18 05:47:49;;;;;;;9.27;5.65;;;27.60;99.90;;;;;;5038563;28;20217;-77
2022/06/18 05:50:18;;;;;;;12.00;6.60;;;27.90;99.90;;;;;;5037657;28;20268;-78
2022/06/18 05:52:45;;;;;;;10.23;6.93;;;28.30;99.90;;;;;;5038547;28;20213;-78
2022/06/18 05:55:12;;;;;;;9.73;6.32;;;28.50;99.90;;;;;;5036930;28;20230;-77
2022/06/18 05:57:51;;;;;;;15.55;6.80;;;28.80;99.90;;;;;;5038886;28;20794;-79
2022/06/18 06:00:22;;;;;;;7.57;5.95;;;29.20;99.90;;;;;;5035918;28;20287;-78
2022/06/18 06:02:49;;;;;;;14.50;6.78;;;29.40;99.90;;;;;;5038898;28;20670;-80
2022/06/18 06:05:16;;;;;;;12.93;6.28;;;29.60;99.90;;;;;;5038435;28;20209;-79
2022/06/18 06:07:44;;;;;;;15.95;7.03;;;29.80;99.90;;;;;;5038441;28;20587;-78
2022/06/18 06:13:11;;;;;;;13.20;6.10;;;30.40;98.80;;;;;;5036327;28;20256;-79
2022/06/18 06:15:39;;;;;;;11.02;6.28;;;30.50;98.60;;;;;;5035910;28;20217;-78
2022/06/18 06:18:07;;;;;;;9.93;5.85;;;30.60;98.20;;;;;;5037798;28;20202;-78
2022/06/18 06:20:38;;;;;;;8.30;6.20;;;30.70;97.80;;;;;;5037013;28;20205;-77
2022/06/18 06:23:06;;;;;;;11.95;6.47;;;30.80;97.50;;;;;;5070236;28;20728;-77
2022/06/18 06:25:33;;;;;;;10.85;6.10;;;30.90;97.20;;;;;;5036424;28;20221;-77
2022/06/18 06:28:00;;;;;;;9.80;6.50;;;31.10;96.90;;;;;;5038179;28;20208;-76
2022/06/18 06:30:28;;;;;;;12.63;5.70;;;31.60;96.40;;;;;;5038077;28;20723;-78
2022/06/18 06:32:54;;;;;;;8.38;5.63;;;31.80;95.60;;;;;;5036626;28;20217;-78
2022/06/18 06:35:21;;;;;;;9.45;5.50;;;32.10;95.20;;;;;;5039706;28;20209;-77
2022/06/18 06:37:48;;;;;;;9.65;5.75;;;32.30;94.60;;;;;;5035399;28;20673;-76
2022/06/18 06:40:15;;;;;;;13.07;6.15;;;32.50;98.00;;;;;;5039584;28;20796;-78
2022/06/18 06:42:45;;;;;;;11.18;5.45;;;32.30;93.40;;;;;;5037753;28;20284;-77
2022/06/18 06:45:14;;;;;;;11.23;6.07;;;32.40;93.20;;;;;;5036395;28;20206;-77
2022/06/18 06:47:41;;;;;;;10.65;6.60;;;32.40;93.00;;;;;;5036231;28;20202;-78
2022/06/18 06:50:10;;;;;;;12.70;6.35;;;32.60;92.90;;;;;;5027692;28;20236;-79
2022/06/18 06:52:37;;;;;;;12.40;6.53;;;32.80;92.50;;;;;;5027051;28;20205;-78
2022/06/18 06:57:57;;;;;;;10.77;6.82;;;32.90;92.00;;;;;;5028166;28;20661;-77
2022/06/18 07:00:24;;;;;;;10.57;6.57;;;33.00;92.40;;;;;;5028277;28;20205;-77
2022/06/18 07:02:51;;;;;;;11.50;6.82;;;33.00;91.60;;;;;;5035382;28;20244;-77
2022/06/18 07:05:18;;;;;;;12.07;6.90;;;33.00;91.50;;;;;;5027786;28;20293;-77
2022/06/18 07:07:45;;;;;;;12.05;6.90;;;32.90;91.40;;;;;;5028098;28;20205;-78
2022/06/18 07:10:13;;;;;;;9.82;6.22;;;33.20;91.30;;;;;;5028229;28;20218;-78
2022/06/18 07:12:40;;;;;;;9.73;6.32;;;33.30;90.90;;;;;;5027745;28;20267;-76
2022/06/18 07:15:08;;;;;;;11.65;6.10;;;33.60;90.50;;;;;;5028135;28;20306;-77
2022/06/18 07:17:35;;;;;;;13.05;6.55;;;33.80;90.00;;;;;;5033348;28;20213;-78
2022/06/18 07:20:04;;;;;;;8.02;5.43;;;34.00;90.10;;;;;;5035112;28;20208;-79
2022/06/18 07:22:35;;;;;;;12.82;6.30;;;34.20;88.80;;;;;;5035088;28;20232;-78
2022/06/18 07:25:02;;;;;;;11.27;5.47;;;34.40;88.40;;;;;;5037508;28;20221;-77
2022/06/18 07:27:30;;;;;;;12.40;6.25;;;34.70;87.50;;;;;;5035298;28;20216;-77
2022/06/18 07:29:57;;;;;;;11.82;5.93;;;34.90;86.80;;;;;;5027239;28;20667;-78
2022/06/18 07:32:24;;;;;;;9.85;6.88;;;35.00;85.80;;;;;;5027072;28;20298;-78
2022/06/18 07:34:53;;;;;;;11.77;5.90;;;35.10;85.20;;;;;;5036338;28;20246;-80
2022/06/18 07:37:21;;;;;;;10.15;6.03;;;35.10;85.40;;;;;;5036170;28;20221;-78
2022/06/18 07:39:48;;;;;;;9.38;5.82;;;35.10;84.70;;;;;;5038998;28;20220;-76
2022/06/18 07:42:18;;;;;;;9.85;5.88;;;35.00;84.30;;;;;;5034622;28;20237;-78
2022/06/18 07:44:45;;;;;;;12.73;6.18;;;35.00;84.70;;;;;;5035147;28;20609;-78
2022/06/18 07:47:17;;;;;;;8.85;6.53;;;35.00;84.50;;;;;;5034827;28;20944;-77
2022/06/18 07:49:46;;;;;;;13.38;6.03;;;35.00;84.60;;;;;;5035179;28;20240;-77
2022/06/18 07:52:15;;;;;;;9.70;6.32;;;35.00;84.80;;;;;;5034608;28;20217;-77
2022/06/18 07:54:43;;;;;;;10.30;5.80;;;35.20;84.20;;;;;;5037999;28;20220;-78
2022/06/18 07:57:17;;;;;;;8.73;5.50;;;35.30;84.20;;;;;;5038227;28;20289;-78
2022/06/18 07:59:44;;;;;;;10.02;7.30;;;35.20;84.00;;;;;;5034368;28;20236;-77
2022/06/18 08:02:11;;;;;;;7.80;5.95;;;35.20;84.00;;;;;;5036840;28;20571;-78
2022/06/18 08:04:38;;;;;;;9.18;6.25;;;35.10;83.70;;;;;;5034387;28;20260;-76
2022/06/18 08:07:05;;;;;;;11.45;6.63;;;35.00;83.90;;;;;;5036674;28;20205;-78
2022/06/18 08:09:33;;;;;;;8.30;7.18;;;35.00;83.40;;;;;;5035884;28;20225;-79
2022/06/18 08:12:01;;;;;;;12.35;6.88;;;35.00;83.60;;;;;;5037720;28;20615;-78
2022/06/18 08:14:28;;;;;;;12.57;6.72;;;35.00;84.10;;;;;;5034350;28;20213;-78
2022/06/18 08:16:55;;;;;;;7.05;5.72;;;35.10;83.60;;;;;;5039590;28;20240;-77
2022/06/18 08:19:22;;;;;;;10.25;6.03;;;35.20;83.10;;;;;;5039511;28;20631;-78
2022/06/18 08:21:49;;;;;;;9.23;6.47;;;35.20;82.40;;;;;;5039780;28;20525;-77
2022/06/18 08:24:21;;;;;;;12.15;7.43;;;35.20;82.60;;;;;;5040790;28;20236;-79
2022/06/18 08:26:50;;;;;;;12.70;6.50;;;34.80;82.30;;;;;;5038135;28;20213;-77
2022/06/18 08:29:21;;;;;;;9.38;6.43;;;34.70;83.60;;;;;;5040808;28;20201;-76
2022/06/18 08:31:48;;;;;;;10.45;6.40;;;34.80;83.90;;;;;;5040027;28;20209;-77
2022/06/18 08:34:15;;;;;;;8.13;5.78;;;34.90;84.30;;;;;;5042730;28;20645;-75
2022/06/18 08:36:49;;;;;;;6.30;5.65;;;35.00;83.50;;;;;;5038335;28;20209;-76
2022/06/18 08:39:16;;;;;;;8.93;6.05;;;34.90;83.80;;;;;;5040617;28;20229;-77
2022/06/18 08:41:55;;;;;;;7.90;5.50;;;34.90;83.60;;;;;;5039664;28;20685;-78
2022/06/18 08:44:40;;;;;;;9.13;5.97;;;34.80;82.40;;;;;;5037673;28;20244;-78
2022/06/18 08:47:41;;;;;;;9.75;5.38;;;34.80;81.70;;;;;;5040633;28;20221;-79
2022/06/18 08:50:15;;;;;;;6.35;4.65;;;34.90;81.00;;;;;;5038900;28;20213;-77
2022/06/18 08:52:55;;;;;;;10.88;5.13;;;34.80;81.30;;;;;;5041534;28;20274;-78
2022/06/18 08:55:54;;;;;;;8.80;4.53;;;34.90;80.80;;;;;;5038807;28;20294;-78
2022/06/18 08:58:44;;;;;;;5.80;4.43;;;35.00;79.20;;;;;;5039481;28;20216;-76
2022/06/18 09:01:20;;;;;;;8.40;4.43;;;35.00;79.50;;;;;;5043373;28;20213;-79
2022/06/18 09:04:09;;;;;;;9.48;5.00;;;35.00;80.30;;;;;;5036970;28;20595;-77
2022/06/18 09:07:13;;;;;;;13.32;5.47;;;34.90;80.70;;;;;;5039922;28;20216;-77
2022/06/18 09:10:18;;;;;;;10.93;5.07;;;35.20;81.20;;;;;;5039179;28;20291;-76
2022/06/18 09:13:01;;;;;;;9.60;4.43;;;35.20;81.40;;;;;;5026597;28;20816;-77
2022/06/18 09:15:36;;;;;;;11.05;4.82;;;35.00;80.10;;;;;;5026441;28;20279;-77
2022/06/18 09:18:06;;;;;;;7.50;3.97;;;35.00;80.90;;;;;;5035624;28;20220;-77
2022/06/18 09:20:39;;;;;;;13.20;5.20;;;34.90;80.00;;;;;;5038914;28;20209;-77
2022/06/18 09:23:19;;;;;;;7.13;4.43;;;35.00;80.20;;;;;;5037468;28;20230;-76
2022/06/18 09:25:51;;;;;;;14.55;5.78;;;34.90;81.20;;;;;;5038952;28;20224;-77
2022/06/18 09:28:27;;;;;;;8.85;4.63;;;34.90;81.10;;;;;;5041095;28;20548;-76
2022/06/18 09:30:57;;;;;;;9.00;4.97;;;34.90;83.10;;;;;;5037540;28;20235;-76
2022/06/18 09:33:36;;;;;;;7.43;4.50;;;34.90;83.60;;;;;;5041950;28;20208;-76
2022/06/18 09:36:23;;;;;;;14.93;5.25;;;34.70;83.10;;;;;;5038061;28;20205;-77
2022/06/18 09:39:14;;;;;;;8.70;4.20;;;34.60;83.20;;;;;;5037235;28;20263;-77
2022/06/18 09:41:48;;;;;;;6.75;4.25;;;34.60;83.00;;;;;;5036485;28;20619;-77
2022/06/18 09:44:21;;;;;;;8.10;4.50;;;34.60;82.10;;;;;;5038820;28;20413;-78
2022/06/18 09:46:54;;;;;;;7.05;4.05;;;34.50;83.10;;;;;;5038451;28;20201;-77
2022/06/18 09:49:21;;;;;;;9.27;4.68;;;34.40;82.30;;;;;;5052013;28;20221;-76
2022/06/18 09:52:13;;;;;;;17.05;4.85;;;34.30;82.60;;;;;;5037712;28;20216;-76
2022/06/18 09:54:51;;;;;;;10.00;4.75;;;34.20;82.90;;;;;;5038132;28;20573;-77
2022/06/18 09:57:22;;;;;;;4.90;4.05;;;34.10;83.40;;;;;;5036528;28;20210;-76
2022/06/18 10:00:02;;;;;;;11.73;5.43;;;34.00;84.00;;;;;;5038230;28;20266;-76
2022/06/18 10:02:32;;;;;;;9.07;5.03;;;34.00;83.90;;;;;;5036736;28;20208;-76
2022/06/18 10:07:51;;;;;;;10.40;4.40;;;33.80;84.80;;;;;;5037064;28;20205;-78
2022/06/18 10:10:22;;;;;;;7.57;4.30;;;33.60;85.00;;;;;;5038554;28;20232;-77
2022/06/18 10:12:53;;;;;;;11.07;4.85;;;33.60;85.30;;;;;;5038879;28;20209;-77
2022/06/18 10:15:23;;;;;;;13.30;4.97;;;33.60;85.80;;;;;;5036449;28;20206;-77
2022/06/18 10:18:27;;;;;;;13.68;5.05;;;33.50;85.50;;;;;;5038638;28;20205;-77
2022/06/18 10:21:03;;;;;;;10.60;4.60;;;33.50;85.00;;;;;;5039648;28;20213;-78
2022/06/18 10:23:48;;;;;;;7.82;3.97;;;33.40;84.80;;;;;;5036810;28;20323;-76
2022/06/18 10:26:52;;;;;;;7.65;3.78;;;33.30;85.70;;;;;;5027327;28;20295;-78
2022/06/18 10:29:25;;;;;;;8.55;3.75;;;33.30;86.20;;;;;;5027585;28;20617;-77
2022/06/18 10:32:14;;;;;;;7.00;3.85;;;33.20;85.50;;;;;;5028090;28;20264;-78
2022/06/18 10:35:02;;;;;;;7.90;4.18;;;33.20;85.50;;;;;;5041628;28;20217;-77
2022/06/18 10:37:41;;;;;;;12.00;3.97;;;33.20;85.30;;;;;;5038467;28;20594;-77
2022/06/18 10:40:44;;;;;;;10.43;3.92;;;33.20;85.40;;;;;;5037590;28;20225;-77
2022/06/18 10:43:13;;;;;;;9.07;4.07;;;33.30;85.40;;;;;;5038128;28;20294;-78
2022/06/18 10:45:49;;;;;;;8.05;3.70;;;33.30;86.20;;;;;;5032164;28;20201;-76
2022/06/18 10:48:22;;;;;;;10.30;3.83;;;33.20;85.90;;;;;;5036732;28;20209;-76
2022/06/18 10:50:52;;;;;;;6.40;4.25;;;33.10;85.70;;;;;;5038816;28;20201;-76
2022/06/18 10:53:22;;;;;;;7.88;4.43;;;33.10;86.00;;;;;;5035889;28;20727;-77
2022/06/18 10:56:12;;;;;;;9.82;4.40;;;33.20;85.80;;;;;;5039359;28;20254;-76
2022/06/18 10:58:49;;;;;;;9.02;4.18;;;33.20;85.10;;;;;;5039148;28;20240;-78
2022/06/18 11:01:28;;;;;;;12.18;3.85;;;33.20;85.40;;;;;;5041580;28;20197;-77
2022/06/18 11:03:59;;;;;;;5.90;4.40;;;33.20;87.80;;;;;;5065773;28;20237;-76
2022/06/18 11:06:27;;;;;;;8.32;4.20;;;33.20;86.80;;;;;;5036185;28;20213;-76
2022/06/18 11:08:57;;;;;;;6.90;4.60;;;33.00;86.70;;;;;;5034985;28;20220;-77
2022/06/18 11:11:29;;;;;;;8.82;4.32;;;33.10;86.30;;;;;;5037538;28;20304;-77
2022/06/18 11:14:13;;;;;;;9.32;4.28;;;33.20;86.40;;;;;;5038022;28;20216;-77
2022/06/18 11:16:49;;;;;;;12.60;4.13;;;33.20;86.40;;;;;;5037557;28;20243;-76
2022/06/18 11:19:37;;;;;;;9.57;4.53;;;33.00;86.60;;;;;;5035271;28;20267;-76
2022/06/18 11:22:18;;;;;;;5.60;3.92;;;33.00;87.20;;;;;;5038044;28;20213;-76
2022/06/18 11:24:54;;;;;;;8.88;4.78;;;32.90;88.20;;;;;;5037077;28;20323;-76
2022/06/18 11:27:22;;;;;;;8.93;3.83;;;33.00;87.60;;;;;;5066960;28;20355;-75
2022/06/18 11:29:52;;;;;;;10.07;5.00;;;33.00;87.00;;;;;;5038256;28;20719;-75
2022/06/18 11:32:31;;;;;;;9.70;4.90;;;33.00;86.70;;;;;;5067828;28;20213;-75
2022/06/18 11:35:05;;;;;;;8.75;4.10;;;32.90;86.70;;;;;;5034980;28;20206;-76
2022/06/18 11:37:32;;;;;;;7.20;4.68;;;32.90;86.90;;;;;;5037300;28;20217;-76
2022/06/18 11:40:20;;;;;;;7.47;4.40;;;32.90;86.20;;;;;;5038883;28;20283;-77
2022/06/18 11:42:56;;;;;;;9.77;4.53;;;32.80;86.30;;;;;;5037613;28;20611;-76
2022/06/18 11:45:42;;;;;;;10.45;4.30;;;32.80;88.90;;;;;;5034672;28;20237;-77
2022/06/18 11:48:18;;;;;;;7.18;4.28;;;33.00;86.80;;;;;;5034787;28;20623;-76
2022/06/18 11:51:00;;;;;;;13.07;4.78;;;32.80;86.40;;;;;;5036056;28;20209;-77
2022/06/18 11:53:51;;;;;;;8.65;4.25;;;32.90;88.20;;;;;;5038316;28;20278;-78
2022/06/18 11:56:31;;;;;;;9.75;4.10;;;33.00;88.00;;;;;;5042531;28;20213;-76
2022/06/18 11:59:13;;;;;;;11.32;5.05;;;33.00;88.00;;;;;;5039703;28;20210;-75
2022/06/18 12:01:50;;;;;;;9.82;4.30;;;33.10;87.60;;;;;;5039002;28;20263;-76
2022/06/18 12:04:31;;;;;;;11.80;4.90;;;33.20;87.60;;;;;;5037887;28;20705;-76
2022/06/18 12:07:08;;;;;;;5.90;4.13;;;33.20;85.80;;;;;;5040708;28;20206;-75
2022/06/18 12:09:36;;;;;;;5.55;3.85;;;33.10;86.60;;;;;;5030548;28;20577;-75
2022/06/18 12:12:09;;;;;;;10.25;4.93;;;33.20;86.40;;;;;;5030135;28;20209;-78
2022/06/18 12:14:52;;;;;;;7.85;3.85;;;33.10;86.70;;;;;;5030246;28;20214;-76
2022/06/18 12:17:27;;;;;;;10.10;5.38;;;33.30;87.80;;;;;;5030131;28;20263;-76
2022/06/18 12:20:24;;;;;;;10.15;4.20;;;33.40;87.20;;;;;;5029865;28;20213;-76
2022/06/18 12:22:58;;;;;;;6.47;3.78;;;33.40;86.60;;;;;;5037168;28;20210;-77
2022/06/18 12:25:49;;;;;;;10.52;4.13;;;33.50;86.60;;;;;;5040200;28;20286;-77
2022/06/18 12:28:51;;;;;;;9.77;4.43;;;33.60;87.10;;;;;;5039748;28;20209;-76
2022/06/18 12:31:29;;;;;;;6.65;3.70;;;33.80;86.50;;;;;;5041099;28;20220;-77
2022/06/18 12:34:08;;;;;;;8.13;3.85;;;33.80;86.60;;;;;;5041215;28;20243;-75
2022/06/18 12:37:02;;;;;;;7.80;4.00;;;33.80;85.20;;;;;;5041416;28;20212;-77
2022/06/18 12:39:51;;;;;;;11.25;3.90;;;33.90;85.70;;;;;;5069719;28;20287;-76
2022/06/18 12:42:34;;;;;;;6.53;4.00;;;33.90;86.20;;;;;;5038263;28;20220;-77
2022/06/18 12:45:06;;;;;;;8.82;3.70;;;33.90;85.70;;;;;;5038197;28;20283;-75
2022/06/18 12:47:36;;;;;;;6.05;3.78;;;33.80;85.60;;;;;;5038139;28;20217;-75
2022/06/18 12:50:23;;;;;;;9.30;3.95;;;33.90;84.30;;;;;;5039805;28;20220;-75
2022/06/18 12:53:20;;;;;;;7.30;3.55;;;33.80;84.00;;;;;;5037614;28;20213;-79
2022/06/18 12:56:15;;;;;;;8.70;3.38;;;33.90;83.70;;;;;;5039433;28;20222;-77
2022/06/18 12:58:58;;;;;;;6.90;3.40;;;33.80;84.30;;;;;;5036546;28;20232;-75
2022/06/18 13:02:00;;;;;;;7.95;3.58;;;33.80;84.30;;;;;;5040753;28;20237;-77
2022/06/18 13:04:52;;;;;;;8.40;3.30;;;33.80;84.20;;;;;;5039850;28;20237;-76
2022/06/18 13:07:25;;;;;;;7.80;3.60;;;33.90;83.50;;;;;;5072143;28;20689;-75
2022/06/18 13:10:00;;;;;;;9.48;3.22;;;34.00;83.10;;;;;;5053630;28;20605;-75
2022/06/18 13:13:00;;;;;;;7.32;3.45;;;34.00;82.50;;;;;;5038200;28;20202;-76
2022/06/18 13:15:37;;;;;;;8.95;3.78;;;33.90;83.30;;;;;;5036761;28;20602;-75
2022/06/18 13:18:29;;;;;;;7.32;3.25;;;33.90;83.90;;;;;;5038781;28;20212;-77
2022/06/18 13:21:01;;;;;;;9.50;3.97;;;33.90;83.90;;;;;;5039200;28;20742;-77
2022/06/18 13:29:22;;;;;;;7.20;3.55;;;33.30;84.90;;;;;;5039931;28;20245;-76
2022/06/18 13:32:10;;;;;;;5.60;3.30;;;33.20;85.50;;;;;;5038597;28;20213;-78